createdAt,value
2018-12-05T00:01:43.121Z,5.70
2018-12-05T00:04:11.321Z,5.70
2018-12-05T00:06:42.687Z,5.60
2018-12-05T00:09:10.984Z,5.70
2018-12-05T00:11:39.287Z,5.70
2018-12-05T00:14:07.676Z,5.60
2018-12-05T00:16:35.880Z,5.60
2018-12-05T00:19:04.201Z,5.60
2018-12-05T00:21:32.507Z,5.50
2018-12-05T00:24:00.784Z,5.50
2018-12-05T00:26:28.992Z,5.40
2018-12-05T00:28:57.294Z,5.40
2018-12-05T00:31:25.509Z,5.40
2018-12-05T00:33:53.713Z,5.30
2018-12-05T00:36:21.933Z,5.30
2018-12-05T00:38:50.157Z,5.20
2018-12-05T00:41:18.361Z,5.20
2018-12-05T00:43:46.605Z,5.20
2018-12-05T00:46:14.820Z,5.10
2018-12-05T00:48:43.036Z,5.00
2018-12-05T00:51:11.340Z,5.00
2018-12-05T00:53:39.544Z,4.90
2018-12-05T00:56:07.756Z,4.80
2018-12-05T00:58:36.013Z,4.80
2018-12-05T01:01:04.446Z,4.70
2018-12-05T01:03:32.739Z,4.70
2018-12-05T01:06:01.120Z,4.60
2018-12-05T01:08:29.312Z,4.50
2018-12-05T01:10:57.516Z,4.50
2018-12-05T01:13:25.940Z,4.50
2018-12-05T01:15:54.224Z,4.50
2018-12-05T01:18:22.427Z,4.50
2018-12-05T01:20:50.729Z,4.50
2018-12-05T01:23:18.952Z,4.40
2018-12-05T01:25:47.156Z,4.40
2018-12-05T01:28:15.796Z,4.40
2018-12-05T01:30:43.997Z,4.40
2018-12-05T01:33:12.212Z,4.40
2018-12-05T01:35:40.424Z,4.40
2018-12-05T01:38:08.630Z,4.40
2018-12-05T01:40:36.837Z,4.40
2018-12-05T01:43:05.176Z,4.50
2018-12-05T01:45:33.477Z,4.50
2018-12-05T01:48:01.676Z,4.50
2018-12-05T01:50:29.978Z,4.60
2018-12-05T01:52:58.181Z,4.60
2018-12-05T01:55:26.385Z,4.50
2018-12-05T01:57:54.708Z,4.50
2018-12-05T02:00:22.917Z,4.60
2018-12-05T02:02:51.144Z,4.60
2018-12-05T02:05:19.381Z,4.70
2018-12-05T02:07:47.597Z,4.70
2018-12-05T02:10:15.808Z,4.80
2018-12-05T02:12:44.094Z,4.80
2018-12-05T02:15:12.307Z,4.80
2018-12-05T02:17:40.594Z,4.80
2018-12-05T02:20:09.206Z,4.80
2018-12-05T02:22:37.421Z,4.80
2018-12-05T02:25:06.185Z,4.90
2018-12-05T02:27:34.591Z,4.90
2018-12-05T02:30:02.995Z,4.90
2018-12-05T02:32:31.193Z,4.90
2018-12-05T02:34:59.402Z,5.00
2018-12-05T02:37:27.608Z,4.90
2018-12-05T02:39:56.128Z,4.90
2018-12-05T02:42:24.361Z,5.00
2018-12-05T02:44:52.635Z,5.00
2018-12-05T02:47:20.844Z,5.00
2018-12-05T02:49:49.228Z,5.00
2018-12-05T02:52:17.439Z,5.00
2018-12-05T02:54:45.716Z,5.00
2018-12-05T02:57:13.946Z,5.00
2018-12-05T02:59:42.158Z,5.00
2018-12-05T03:02:10.356Z,5.10
2018-12-05T03:04:38.676Z,5.00
2018-12-05T03:07:06.906Z,5.00
2018-12-05T03:09:35.192Z,5.00
2018-12-05T03:12:03.412Z,5.00
2018-12-05T03:14:31.680Z,5.00
2018-12-05T03:16:59.880Z,5.00
2018-12-05T03:19:28.133Z,5.10
2018-12-05T03:21:56.334Z,5.00
2018-12-05T03:24:24.541Z,5.10
2018-12-05T03:26:52.921Z,5.10
2018-12-05T03:29:21.210Z,5.10
2018-12-05T03:31:49.493Z,5.10
2018-12-05T03:34:17.796Z,5.10
2018-12-05T03:36:46.010Z,5.10
2018-12-05T03:39:14.215Z,5.10
2018-12-05T03:41:42.537Z,5.20
2018-12-05T03:44:10.745Z,5.20
2018-12-05T03:46:38.946Z,5.20
2018-12-05T03:49:07.320Z,5.30
2018-12-05T03:51:35.529Z,5.30
2018-12-05T03:54:03.843Z,5.30
2018-12-05T03:56:32.443Z,5.30
2018-12-05T03:59:00.741Z,5.30
2018-12-05T04:01:28.933Z,5.30
2018-12-05T04:03:57.316Z,5.30
2018-12-05T04:06:25.530Z,5.40
2018-12-05T04:08:53.749Z,5.40
2018-12-05T04:11:22.349Z,5.40
2018-12-05T04:13:50.641Z,5.40
2018-12-05T04:16:18.849Z,5.40
2018-12-05T04:18:47.093Z,5.50
2018-12-05T04:21:15.305Z,5.40
2018-12-05T04:23:43.610Z,5.40
2018-12-05T04:26:11.885Z,5.40
2018-12-05T04:28:40.086Z,5.40
2018-12-05T04:31:08.296Z,5.40
2018-12-05T04:33:36.614Z,5.50
2018-12-05T04:36:04.885Z,5.50
2018-12-05T04:38:33.299Z,5.60
2018-12-05T04:41:01.672Z,5.50
2018-12-05T04:43:29.892Z,5.50
2018-12-05T04:45:58.083Z,5.50
2018-12-05T04:48:26.310Z,5.60
2018-12-05T04:50:54.521Z,5.60
2018-12-05T04:53:22.718Z,5.60
2018-12-05T04:55:51.316Z,5.50
2018-12-05T04:58:19.524Z,5.60
2018-12-05T05:00:47.826Z,5.60
2018-12-05T05:03:16.057Z,5.50
2018-12-05T05:05:44.323Z,5.60
2018-12-05T05:08:12.573Z,5.50
2018-12-05T05:10:41.312Z,5.60
2018-12-05T05:13:10.105Z,5.50
2018-12-05T05:15:38.397Z,5.50
2018-12-05T05:18:06.671Z,5.50
2018-12-05T05:20:34.947Z,5.50
2018-12-05T05:23:03.220Z,5.50
2018-12-05T05:25:35.345Z,5.50
2018-12-05T05:28:03.656Z,5.60
2018-12-05T05:30:32.786Z,5.60
2018-12-05T05:33:02.774Z,5.60
2018-12-05T05:35:36.781Z,5.50
2018-12-05T05:38:10.848Z,5.60
2018-12-05T05:40:49.105Z,5.60
2018-12-05T05:43:23.187Z,5.50
2018-12-05T05:45:57.377Z,5.70
2018-12-05T05:48:33.401Z,5.60
2018-12-05T05:51:01.761Z,5.60
2018-12-05T05:53:37.582Z,5.50
2018-12-05T05:56:11.705Z,5.50
2018-12-05T05:58:44.729Z,5.60
2018-12-05T06:01:13.378Z,5.60
2018-12-05T06:03:41.595Z,5.60
2018-12-05T06:06:09.849Z,5.60
2018-12-05T06:08:38.070Z,5.50
2018-12-05T06:11:06.281Z,5.60
2018-12-05T06:13:34.493Z,5.60
2018-12-05T06:16:02.768Z,5.60
2018-12-05T06:18:30.978Z,5.60
2018-12-05T06:20:59.323Z,5.70
2018-12-05T06:23:27.605Z,5.70
2018-12-05T06:25:55.812Z,5.60
2018-12-05T06:28:24.288Z,5.60
2018-12-05T06:30:52.491Z,5.60
2018-12-05T06:33:20.693Z,5.70
2018-12-05T06:35:48.952Z,5.60
2018-12-05T06:38:17.157Z,5.70
2018-12-05T06:40:45.348Z,5.70
2018-12-05T06:43:13.582Z,5.70
2018-12-05T06:45:41.783Z,5.80
2018-12-05T06:48:10.065Z,5.70
2018-12-05T06:50:38.302Z,5.60
2018-12-05T06:53:06.508Z,5.80
2018-12-05T06:55:39.142Z,5.80
2018-12-05T06:58:05.119Z,5.80
2018-12-05T07:00:33.317Z,5.80
2018-12-05T07:03:01.608Z,5.80
2018-12-05T07:05:29.833Z,5.80
2018-12-05T07:07:58.208Z,5.80
2018-12-05T07:10:26.425Z,5.80
2018-12-05T07:12:54.673Z,5.70
2018-12-05T07:15:22.884Z,5.70
2018-12-05T07:17:51.132Z,5.70
2018-12-05T07:20:19.521Z,5.80
2018-12-05T07:22:47.719Z,5.70
2018-12-05T07:25:15.956Z,5.70
2018-12-05T07:27:44.241Z,5.70
2018-12-05T07:30:12.544Z,5.70
2018-12-05T07:32:40.754Z,5.70
2018-12-05T07:35:08.689Z,5.80
2018-12-05T07:37:36.893Z,5.80
2018-12-05T07:40:05.275Z,5.70
2018-12-05T07:42:33.567Z,5.70
2018-12-05T07:45:01.846Z,5.70
2018-12-05T07:47:30.133Z,5.70
2018-12-05T07:49:58.386Z,5.80
2018-12-05T07:52:26.592Z,5.80
2018-12-05T07:54:54.803Z,5.80
2018-12-05T07:57:23.041Z,5.90
2018-12-05T07:59:51.252Z,5.90
2018-12-05T08:02:19.554Z,5.80
2018-12-05T08:04:47.814Z,5.90
2018-12-05T08:07:16.105Z,5.90
2018-12-05T08:09:44.297Z,5.90
2018-12-05T08:12:12.508Z,5.90
2018-12-05T08:14:40.799Z,6.00
2018-12-05T08:17:09.084Z,6.00
2018-12-05T08:19:37.316Z,6.00
2018-12-05T08:22:05.682Z,6.10
2018-12-05T08:24:33.985Z,6.20
2018-12-05T08:27:02.199Z,6.30
2018-12-05T08:29:30.419Z,6.30
2018-12-05T08:31:58.692Z,6.30
2018-12-05T08:34:26.949Z,6.40
2018-12-05T08:36:55.165Z,6.40
2018-12-05T08:39:23.364Z,6.40
2018-12-05T08:41:51.663Z,6.40
2018-12-05T08:44:19.856Z,6.50
2018-12-05T08:46:48.061Z,6.50
2018-12-05T08:49:16.279Z,6.50
2018-12-05T08:51:44.480Z,6.70
2018-12-05T08:54:12.687Z,6.90
2018-12-05T08:56:41.317Z,7.10
2018-12-05T08:59:09.760Z,7.20
2018-12-05T09:01:38.036Z,7.40
2018-12-05T09:04:06.651Z,7.60
2018-12-05T09:06:34.830Z,7.90
2018-12-05T09:09:04.297Z,8.00
2018-12-05T09:11:32.538Z,8.30
2018-12-05T09:14:00.735Z,8.50
2018-12-05T09:16:28.940Z,8.60
2018-12-05T09:18:57.261Z,9.00
2018-12-05T09:21:25.532Z,9.30
2018-12-05T09:23:53.741Z,9.60
2018-12-05T09:26:21.959Z,9.70
2018-12-05T09:28:57.041Z,9.80
2018-12-05T09:31:20.449Z,9.80
2018-12-05T09:33:48.841Z,9.70
2018-12-05T09:36:17.053Z,9.80
2018-12-05T09:38:45.265Z,9.80
2018-12-05T09:41:13.484Z,9.90
2018-12-05T09:43:41.696Z,9.80
2018-12-05T09:46:09.901Z,9.90
2018-12-05T09:48:38.226Z,10.00
2018-12-05T09:51:06.438Z,9.90
2018-12-05T09:53:34.649Z,9.90
2018-12-05T09:56:02.984Z,9.90
2018-12-05T09:58:31.194Z,10.00
2018-12-05T10:00:59.419Z,10.00
2018-12-05T10:03:27.648Z,10.00
2018-12-05T10:05:55.859Z,10.00
2018-12-05T10:08:24.148Z,10.00
2018-12-05T10:10:52.863Z,9.90
2018-12-05T10:13:21.154Z,9.70
2018-12-05T10:15:49.364Z,9.70
2018-12-05T10:18:17.581Z,9.70
2018-12-05T10:20:45.820Z,9.60
2018-12-05T10:23:14.142Z,9.60
2018-12-05T10:25:42.727Z,9.60
2018-12-05T10:28:11.044Z,9.40
2018-12-05T10:30:39.437Z,9.40
2018-12-05T10:33:07.745Z,9.40
2018-12-05T10:35:36.051Z,9.30
2018-12-05T10:38:04.316Z,9.30
2018-12-05T10:40:32.618Z,9.20
2018-12-05T10:43:00.937Z,9.30
2018-12-05T10:45:29.248Z,9.50
2018-12-05T10:47:57.521Z,9.60
2018-12-05T10:50:26.026Z,9.70
2018-12-05T10:52:54.309Z,9.80
2018-12-05T10:55:22.538Z,10.00
2018-12-05T10:57:50.827Z,10.00
2018-12-05T11:00:25.437Z,10.20
2018-12-05T11:02:59.021Z,10.40
2018-12-05T11:05:32.801Z,10.60
2018-12-05T11:08:06.428Z,11.00
2018-12-05T11:10:40.248Z,11.50
2018-12-05T11:13:14.164Z,11.90
2018-12-05T11:15:47.843Z,12.10
2018-12-05T11:19:20.988Z,12.50
2018-12-05T11:21:54.744Z,12.50
2018-12-05T11:24:28.324Z,12.40
2018-12-05T11:26:56.677Z,12.40
2018-12-05T11:29:24.989Z,12.30
2018-12-05T11:31:53.197Z,12.20
2018-12-05T11:34:21.449Z,12.10
2018-12-05T11:36:49.665Z,11.90
2018-12-05T11:39:17.872Z,11.90
2018-12-05T11:41:46.136Z,11.90
2018-12-05T11:44:14.350Z,11.90
2018-12-05T11:46:42.652Z,11.90
2018-12-05T11:49:10.877Z,11.80
2018-12-05T11:51:39.093Z,11.70
2018-12-05T11:54:07.305Z,11.60
2018-12-05T11:56:35.533Z,11.50
2018-12-05T11:59:03.932Z,11.50
2018-12-05T12:01:32.152Z,11.50
2018-12-05T12:04:02.162Z,11.40
2018-12-05T12:06:30.678Z,11.40
2018-12-05T12:08:58.863Z,11.40
2018-12-05T12:11:27.150Z,11.40
2018-12-05T12:13:55.460Z,11.30
2018-12-05T12:16:23.845Z,11.30
2018-12-05T12:18:52.165Z,11.40
2018-12-05T12:21:20.377Z,11.30
2018-12-05T12:23:48.587Z,11.20
2018-12-05T12:26:16.907Z,11.30
2018-12-05T12:28:45.209Z,11.30
2018-12-05T12:31:13.425Z,11.30
2018-12-05T12:33:41.658Z,11.30
2018-12-05T12:36:09.869Z,11.20
2018-12-05T12:38:38.078Z,11.20
2018-12-05T12:41:06.387Z,11.10
2018-12-05T12:43:34.669Z,11.20
2018-12-05T12:46:02.872Z,11.20
2018-12-05T12:48:31.364Z,11.20
2018-12-05T12:50:59.564Z,11.10
2018-12-05T12:53:27.861Z,11.10
2018-12-05T12:55:56.072Z,11.10
2018-12-05T12:58:24.280Z,11.00
2018-12-05T13:00:52.609Z,10.90
2018-12-05T13:03:21.021Z,10.90
2018-12-05T13:05:49.237Z,10.90
2018-12-05T13:08:17.979Z,10.90
2018-12-05T13:10:46.272Z,10.90
2018-12-05T13:13:14.509Z,10.80
2018-12-05T13:15:42.716Z,10.70
2018-12-05T13:18:10.979Z,10.70
2018-12-05T13:20:39.153Z,10.50
2018-12-05T13:23:07.397Z,10.30
2018-12-05T13:25:35.628Z,10.40
2018-12-05T13:28:03.944Z,10.40
2018-12-05T13:30:32.353Z,10.40
2018-12-05T13:33:00.568Z,10.30
2018-12-05T13:35:28.894Z,10.30
2018-12-05T13:37:57.103Z,10.20
2018-12-05T13:40:25.404Z,10.20
2018-12-05T13:42:53.600Z,10.10
2018-12-05T13:45:21.849Z,10.00
2018-12-05T13:47:50.178Z,9.80
2018-12-05T13:50:18.548Z,9.80
2018-12-05T13:52:46.929Z,9.60
2018-12-05T13:55:15.141Z,9.60
2018-12-05T13:57:43.492Z,9.60
2018-12-05T14:00:11.797Z,9.60
2018-12-05T14:02:40.071Z,9.60
2018-12-05T14:05:08.547Z,9.60
2018-12-05T14:07:36.829Z,9.60
2018-12-05T14:10:05.726Z,9.50
2018-12-05T14:12:39.013Z,9.50
2018-12-05T14:15:08.353Z,9.50
2018-12-05T14:17:36.761Z,9.40
2018-12-05T14:20:07.218Z,9.40
2018-12-05T14:22:35.789Z,9.50
2018-12-05T14:25:04.789Z,9.30
2018-12-05T14:27:33.096Z,9.30
2018-12-05T14:30:01.409Z,9.30
2018-12-05T14:32:29.794Z,9.30
2018-12-05T14:34:58.077Z,9.40
2018-12-05T14:37:26.308Z,9.40
2018-12-05T14:39:54.882Z,9.40
2018-12-05T14:42:23.165Z,9.20
2018-12-05T14:44:51.404Z,9.20
2018-12-05T14:47:19.608Z,9.20
2018-12-05T14:49:47.987Z,9.20
2018-12-05T14:52:17.471Z,9.10
2018-12-05T14:54:45.860Z,9.20
2018-12-05T14:57:14.152Z,9.20
2018-12-05T14:59:42.364Z,9.20
2018-12-05T15:02:10.668Z,9.10
2018-12-05T15:04:38.868Z,9.00
2018-12-05T15:07:07.252Z,9.00
2018-12-05T15:09:35.536Z,8.90
2018-12-05T15:12:03.997Z,8.90
2018-12-05T15:14:32.233Z,9.00
2018-12-05T15:17:00.456Z,8.90
2018-12-05T15:19:28.663Z,8.80
2018-12-05T15:21:57.061Z,8.80
2018-12-05T15:24:25.449Z,8.80
2018-12-05T15:26:53.647Z,8.70
2018-12-05T15:29:21.944Z,8.80
2018-12-05T15:31:50.149Z,8.80
2018-12-05T15:34:18.448Z,8.80
2018-12-05T15:36:46.737Z,8.70
2018-12-05T15:39:15.017Z,8.70
2018-12-05T15:41:43.242Z,8.60
2018-12-05T15:44:11.788Z,8.50
2018-12-05T15:46:40.872Z,8.50
2018-12-05T15:49:09.084Z,8.50
2018-12-05T15:51:37.789Z,8.30
2018-12-05T15:54:05.984Z,8.30
2018-12-05T15:56:34.192Z,8.20
2018-12-05T15:59:02.487Z,8.10
2018-12-05T16:01:30.792Z,8.10
2018-12-05T16:03:59.068Z,8.00
2018-12-05T16:06:27.288Z,8.00
2018-12-05T16:08:55.698Z,8.00
2018-12-05T16:11:23.906Z,8.00
2018-12-05T16:13:52.132Z,7.90
2018-12-05T16:16:20.343Z,8.00
2018-12-05T16:18:48.565Z,8.00
2018-12-05T16:21:16.992Z,8.00
2018-12-05T16:23:45.274Z,7.90
2018-12-05T16:26:13.478Z,7.90
2018-12-05T16:28:41.768Z,7.90
2018-12-05T16:31:09.970Z,7.80
2018-12-05T16:33:38.169Z,7.80
2018-12-05T16:36:11.142Z,7.70
2018-12-05T16:38:36.623Z,7.70
2018-12-05T16:41:04.896Z,7.70
2018-12-05T16:43:33.201Z,7.70
2018-12-05T16:46:01.406Z,7.70
2018-12-05T16:48:29.686Z,7.70
2018-12-05T16:50:57.938Z,7.70
2018-12-05T16:53:26.176Z,7.60
2018-12-05T16:55:54.381Z,7.70
2018-12-05T16:58:22.664Z,7.60
2018-12-05T17:00:50.841Z,7.70
2018-12-05T17:03:19.045Z,7.70
2018-12-05T17:05:47.609Z,7.60
2018-12-05T17:08:15.809Z,7.60
2018-12-05T17:10:44.017Z,7.50
2018-12-05T17:13:14.451Z,7.40
2018-12-05T17:15:42.657Z,7.40
2018-12-05T17:18:10.857Z,7.40
2018-12-05T17:20:39.194Z,7.40
2018-12-05T17:23:07.469Z,7.50
2018-12-05T17:25:35.667Z,7.40
2018-12-05T17:28:03.914Z,7.40
2018-12-05T17:30:32.293Z,7.30
2018-12-05T17:33:00.488Z,7.30
2018-12-05T17:35:28.797Z,7.20
2018-12-05T17:37:57.068Z,7.20
2018-12-05T17:40:25.367Z,7.10
2018-12-05T17:42:53.887Z,7.10
2018-12-05T17:45:22.257Z,7.10
2018-12-05T17:47:57.413Z,7.00
2018-12-05T17:50:25.812Z,6.90
2018-12-05T17:52:54.017Z,6.80
2018-12-05T17:55:22.338Z,6.90
2018-12-05T17:57:50.536Z,6.90
2018-12-05T18:00:18.830Z,6.80
2018-12-05T18:02:47.137Z,6.90
2018-12-05T18:05:15.424Z,6.80
2018-12-05T18:07:43.702Z,6.80
2018-12-05T18:10:12.094Z,6.90
2018-12-05T18:12:40.301Z,6.80
2018-12-05T18:15:08.506Z,6.80
2018-12-05T18:17:36.802Z,6.70
2018-12-05T18:20:07.278Z,6.80
2018-12-05T18:22:35.481Z,6.90
2018-12-05T18:25:03.897Z,6.90
2018-12-05T18:27:32.159Z,6.90
2018-12-05T18:30:00.333Z,7.00
2018-12-05T18:32:28.713Z,7.00
2018-12-05T18:34:56.904Z,7.10
2018-12-05T18:37:25.104Z,7.10
2018-12-05T18:39:53.336Z,7.00
2018-12-05T18:42:21.640Z,7.00
2018-12-05T18:44:50.077Z,7.10
2018-12-05T18:47:18.297Z,7.10
2018-12-05T18:49:46.505Z,7.10
2018-12-05T18:52:14.785Z,7.00
2018-12-05T18:54:42.993Z,7.10
2018-12-05T18:57:11.201Z,7.20
2018-12-05T18:59:39.444Z,7.20
2018-12-05T19:02:07.765Z,7.20
2018-12-05T19:04:35.956Z,7.20
2018-12-05T19:07:04.265Z,7.20
2018-12-05T19:09:32.863Z,7.20
2018-12-05T19:12:01.077Z,7.20
2018-12-05T19:14:34.722Z,7.30
2018-12-05T19:17:02.954Z,7.30
2018-12-05T19:19:31.273Z,7.40
2018-12-05T19:21:59.608Z,7.40
2018-12-05T19:24:27.810Z,7.40
2018-12-05T19:26:56.098Z,7.40
2018-12-05T19:29:24.326Z,7.40
2018-12-05T19:31:52.629Z,7.40
2018-12-05T19:34:20.836Z,7.40
2018-12-05T19:36:49.299Z,7.40
2018-12-05T19:39:17.610Z,7.40
2018-12-05T19:41:45.828Z,7.40
2018-12-05T19:44:14.141Z,7.40
2018-12-05T19:46:42.428Z,7.40
2018-12-05T19:49:10.642Z,7.60
2018-12-05T19:51:38.965Z,7.60
2018-12-05T19:54:07.301Z,7.50
2018-12-05T19:56:35.585Z,7.50
2018-12-05T19:59:04.141Z,7.60
2018-12-05T20:01:32.336Z,7.50
2018-12-05T20:04:00.541Z,7.50
2018-12-05T20:06:29.348Z,7.60
2018-12-05T20:08:57.696Z,7.60
2018-12-05T20:11:25.992Z,7.50
2018-12-05T20:13:54.242Z,7.50
2018-12-05T20:16:22.461Z,7.50
2018-12-05T20:18:50.888Z,7.50
2018-12-05T20:21:19.196Z,7.50
2018-12-05T20:23:47.421Z,7.40
2018-12-05T20:26:15.636Z,7.30
2018-12-05T20:28:43.936Z,7.30
2018-12-05T20:31:12.299Z,7.30
2018-12-05T20:33:40.584Z,7.30
2018-12-05T20:36:08.813Z,7.30
2018-12-05T20:38:37.022Z,7.30
2018-12-05T20:41:05.333Z,7.40
2018-12-05T20:43:33.624Z,7.30
2018-12-05T20:46:01.935Z,7.30
2018-12-05T20:48:30.136Z,7.30
2018-12-05T20:50:58.452Z,7.30
2018-12-05T20:53:26.692Z,7.30
2018-12-05T20:55:55.435Z,7.40
2018-12-05T20:58:23.772Z,7.30
2018-12-05T21:00:51.980Z,7.30
2018-12-05T21:03:20.194Z,7.20
2018-12-05T21:05:48.661Z,7.20
2018-12-05T21:08:16.900Z,7.20
2018-12-05T21:10:45.192Z,7.00
2018-12-05T21:13:13.573Z,6.90
2018-12-05T21:15:41.781Z,7.00
2018-12-05T21:18:09.995Z,7.00
2018-12-05T21:20:38.258Z,7.00
2018-12-05T21:23:06.586Z,7.00
2018-12-05T21:25:34.864Z,7.00
2018-12-05T21:28:03.241Z,6.90
2018-12-05T21:30:31.564Z,6.90
2018-12-05T21:32:59.789Z,6.80
2018-12-05T21:35:28.096Z,6.80
2018-12-05T21:37:56.305Z,6.80
2018-12-05T21:40:24.615Z,6.70
2018-12-05T21:42:52.830Z,6.70
2018-12-05T21:45:21.045Z,6.70
2018-12-05T21:47:49.244Z,6.70
2018-12-05T21:50:17.461Z,6.70
2018-12-05T21:52:45.666Z,6.80
2018-12-05T21:55:13.872Z,6.80
2018-12-05T21:57:42.088Z,6.80
2018-12-05T22:00:12.184Z,6.90
2018-12-05T22:02:40.401Z,6.90
2018-12-05T22:05:08.885Z,7.00
2018-12-05T22:07:37.180Z,7.00
2018-12-05T22:10:07.157Z,7.00
2018-12-05T22:12:35.368Z,7.10
2018-12-05T22:15:03.673Z,7.00
2018-12-05T22:17:31.879Z,7.00
2018-12-05T22:20:00.127Z,7.00
2018-12-05T22:22:28.521Z,7.10
2018-12-05T22:24:56.736Z,7.10
2018-12-05T22:27:25.113Z,7.10
2018-12-05T22:29:53.316Z,7.10
2018-12-05T22:32:21.528Z,7.20
2018-12-05T22:34:49.828Z,7.20
2018-12-05T22:37:18.033Z,7.20
2018-12-05T22:39:46.236Z,7.20
2018-12-05T22:42:14.553Z,7.20
2018-12-05T22:44:42.763Z,7.20
2018-12-05T22:47:11.046Z,7.20
2018-12-05T22:49:39.349Z,7.20
2018-12-05T22:52:07.561Z,7.20
2018-12-05T22:54:35.857Z,7.20
2018-12-05T22:57:13.533Z,7.30
2018-12-05T22:59:42.082Z,7.30
2018-12-05T23:02:10.394Z,7.30
2018-12-05T23:04:38.791Z,7.30
2018-12-05T23:07:06.996Z,7.30
2018-12-05T23:09:35.196Z,7.30
2018-12-05T23:12:03.509Z,7.40
2018-12-05T23:14:31.720Z,7.40
2018-12-05T23:17:00.104Z,7.40
2018-12-05T23:19:28.656Z,7.40
2018-12-05T23:21:56.936Z,7.50
2018-12-05T23:24:25.138Z,7.40
2018-12-05T23:26:54.882Z,7.40
2018-12-05T23:29:23.364Z,7.50
2018-12-05T23:31:51.563Z,7.50
2018-12-05T23:34:19.852Z,7.50
2018-12-05T23:36:48.113Z,7.50
2018-12-05T23:39:16.312Z,7.50
2018-12-05T23:41:44.613Z,7.60
2018-12-05T23:44:12.813Z,7.60
2018-12-05T23:46:41.022Z,7.70
2018-12-05T23:49:09.233Z,7.70
2018-12-05T23:51:37.435Z,7.70
2018-12-05T23:54:05.806Z,7.80
2018-12-05T23:56:34.041Z,7.80
2018-12-05T23:59:02.249Z,7.80
